Wetterdaten: aktuell Samstag, 05.09.2026 09:18
Datum Zeit Temp. A. Feuchte A. Luftdruck Regen Wind Richtung Richtung Sonnenschein Regendauer Taupunkt Windchill
05.09.2026 09:18 13,6 °C 94 % 1020,2 hPa 0,0 mm 0,0 km/h (0 Bft) S-SW 195 ° 0 min 0 min 12,7 °C 13,6 °C
05.09.2026 09:13 13,5 °C 92 % 1020,2 hPa 0,0 mm 1,1 km/h (1 Bft) W-SW 240 ° 0 min 0 min 12,2 °C 13,5 °C
05.09.2026 09:08 13,4 °C 92 % 1020,2 hPa 0,0 mm 2,9 km/h (1 Bft) SO 145 ° 0 min 0 min 12,1 °C 13,4 °C
05.09.2026 09:03 13,4 °C 92 % 1020,2 hPa 0,0 mm 0,4 km/h (0 Bft) S-SW 195 ° 0 min 0 min 12,1 °C 13,4 °C
05.09.2026 08:58 13,5 °C 92 % 1020,2 hPa 0,0 mm 1,3 km/h (1 Bft) W-SW 250 ° 0 min 0 min 12,2 °C 13,5 °C
05.09.2026 08:53 13,5 °C 92 % 1020,2 hPa 0,0 mm 2,2 km/h (1 Bft) NW 320 ° 0 min 0 min 12,2 °C 13,5 °C
05.09.2026 08:48 13,4 °C 92 % 1020,2 hPa 0,0 mm 2,7 km/h (1 Bft) SO 140 ° 0 min 0 min 12,1 °C 13,4 °C
05.09.2026 08:43 13,3 °C 92 % 1020,2 hPa 0,0 mm 2,0 km/h (1 Bft) N 355 ° 0 min 0 min 12,0 °C 13,3 °C
05.09.2026 08:38 13,2 °C 92 % 1020,2 hPa 0,0 mm 4,4 km/h (1 Bft) W 275 ° 0 min 0 min 11,9 °C 13,2 °C
05.09.2026 08:33 13,3 °C 92 % 1019,2 hPa 0,0 mm 4,2 km/h (1 Bft) N-NW 330 ° 0 min 0 min 12,0 °C 13,3 °C
05.09.2026 08:28 13,3 °C 94 % 1019,2 hPa 0,3 mm 4,4 km/h (1 Bft) SW 235 ° 0 min 5 min 12,4 °C 13,3 °C
05.09.2026 08:23 13,3 °C 94 % 1019,2 hPa 0,0 mm 1,4 km/h (1 Bft) S-SW 210 ° 0 min 0 min 12,4 °C 13,3 °C
05.09.2026 08:18 13,4 °C 94 % 1019,1 hPa 0,0 mm 4,4 km/h (1 Bft) S-SW 195 ° 0 min 0 min 12,5 °C 13,4 °C
05.09.2026 08:13 13,5 °C 92 % 1019,1 hPa 0,0 mm 0,0 km/h (0 Bft) W-SW 245 ° 0 min 0 min 12,2 °C 13,5 °C
05.09.2026 08:08 13,4 °C 92 % 1019,1 hPa 0,3 mm 1,8 km/h (1 Bft) S 170 ° 0 min 5 min 12,1 °C 13,4 °C
05.09.2026 08:03 13,7 °C 94 % 1019,1 hPa 0,0 mm 0,0 km/h (0 Bft) S-SW 195 ° 0 min 0 min 12,8 °C 13,7 °C
05.09.2026 07:58 13,5 °C 92 % 1019,1 hPa 0,0 mm 0,7 km/h (0 Bft) O-SO 110 ° 0 min 0 min 12,2 °C 13,5 °C
05.09.2026 07:53 13,4 °C 92 % 1019,1 hPa 0,0 mm 2,2 km/h (1 Bft) W-SW 240 ° 0 min 0 min 12,1 °C 13,4 °C
05.09.2026 07:48 13,3 °C 92 % 1019,2 hPa 0,0 mm 2,7 km/h (1 Bft) NW 310 ° 0 min 0 min 12,0 °C 13,3 °C
05.09.2026 07:43 13,3 °C 92 % 1019,2 hPa 0,3 mm 2,0 km/h (1 Bft) NW 305 ° 0 min 5 min 12,0 °C 13,3 °C
05.09.2026 07:38 13,4 °C 92 % 1019,1 hPa 0,0 mm 0,0 km/h (0 Bft) W 270 ° 0 min 0 min 12,1 °C 13,4 °C
05.09.2026 07:33 13,5 °C 92 % 1019,1 hPa 0,0 mm 1,3 km/h (1 Bft) W-NW 295 ° 0 min 0 min 12,2 °C 13,5 °C
05.09.2026 07:28 13,5 °C 91 % 1019,1 hPa 0,0 mm 3,8 km/h (1 Bft) O-SO 105 ° 0 min 0 min 12,1 °C 13,5 °C
05.09.2026 07:23 13,6 °C 90 % 1019,1 hPa 0,0 mm 0,2 km/h (0 Bft) O-NO 65 ° 0 min 0 min 12,0 °C 13,6 °C
05.09.2026 07:18 13,6 °C 89 % 1020,2 hPa 0,3 mm 8,0 km/h (2 Bft) NW 310 ° 0 min 5 min 11,8 °C 13,6 °C
05.09.2026 07:13 13,7 °C 88 % 1020,1 hPa 0,0 mm 5,8 km/h (2 Bft) N-NW 335 ° 0 min 0 min 11,7 °C 13,7 °C
05.09.2026 07:08 13,9 °C 88 % 1020,1 hPa 0,3 mm 4,7 km/h (1 Bft) W 275 ° 0 min 5 min 11,9 °C 13,9 °C
05.09.2026 07:03 14,0 °C 87 % 1019,0 hPa 0,0 mm 4,0 km/h (1 Bft) NW 305 ° 0 min 0 min 11,9 °C 14,0 °C
05.09.2026 06:58 14,4 °C 84 % 1018,9 hPa 0,0 mm 10,9 km/h (2 Bft) NW 315 ° 0 min 0 min 11,7 °C 14,4 °C
05.09.2026 06:53 14,7 °C 81 % 1018,9 hPa 0,0 mm 3,8 km/h (1 Bft) N-NO 15 ° 0 min 0 min 11,5 °C 14,7 °C
05.09.2026 06:48 15,1 °C 79 % 1019,9 hPa 0,3 mm 10,6 km/h (2 Bft) N-NO 15 ° 0 min 5 min 11,5 °C 15,1 °C
05.09.2026 06:43 16,0 °C 74 % 1019,7 hPa 0,6 mm 21,0 km/h (4 Bft) N 5 ° 0 min 5 min 11,4 °C 16,0 °C
05.09.2026 06:38 17,3 °C 67 % 1019,4 hPa 0,0 mm 20,4 km/h (4 Bft) SW 215 ° 0 min 0 min 11,1 °C 17,3 °C
05.09.2026 06:33 18,0 °C 64 % 1017,2 hPa 0,0 mm 14,3 km/h (3 Bft) W-NW 295 ° 0 min 0 min 11,1 °C 18,0 °C
05.09.2026 06:28 18,3 °C 63 % 1017,1 hPa 0,0 mm 9,8 km/h (2 Bft) N 0 ° 0 min 0 min 11,1 °C 18,3 °C
05.09.2026 06:23 18,6 °C 62 % 1017,1 hPa 0,0 mm 30,4 km/h (5 Bft) NW 325 ° 0 min 0 min 11,2 °C 18,6 °C
05.09.2026 06:18 18,6 °C 62 % 1016,0 hPa 0,0 mm 25,6 km/h (4 Bft) N-NO 30 ° 0 min 0 min 11,2 °C 18,6 °C
05.09.2026 06:13 18,8 °C 63 % 1016,0 hPa 0,0 mm 11,6 km/h (2 Bft) NW 320 ° 0 min 0 min 11,6 °C 18,8 °C
05.09.2026 06:08 19,0 °C 63 % 1016,0 hPa 0,0 mm 22,5 km/h (4 Bft) O-NO 60 ° 0 min 0 min 11,8 °C 19,0 °C
05.09.2026 06:03 19,2 °C 62 % 1015,9 hPa 0,0 mm 17,4 km/h (3 Bft) O 85 ° 0 min 0 min 11,7 °C 19,2 °C
05.09.2026 05:58 19,4 °C 62 % 1015,9 hPa 0,0 mm 19,7 km/h (3 Bft) N-NW 330 ° 0 min 0 min 11,9 °C 19,4 °C
05.09.2026 05:53 19,5 °C 62 % 1015,9 hPa 0,0 mm 20,6 km/h (4 Bft) N-NW 330 ° 0 min 0 min 12,0 °C 19,5 °C
05.09.2026 05:48 19,8 °C 64 % 1015,8 hPa 0,0 mm 16,4 km/h (3 Bft) NO 45 ° 0 min 0 min 12,8 °C 19,8 °C
05.09.2026 05:43 20,1 °C 64 % 1015,8 hPa 0,0 mm 21,2 km/h (4 Bft) O 100 ° 0 min 0 min 13,1 °C 20,1 °C
05.09.2026 05:38 20,3 °C 64 % 1015,7 hPa 0,0 mm 19,7 km/h (3 Bft) O-NO 75 ° 0 min 0 min 13,3 °C 20,3 °C
05.09.2026 05:33 20,4 °C 63 % 1014,7 hPa 0,0 mm 22,1 km/h (4 Bft) N-NO 15 ° 0 min 0 min 13,1 °C 20,4 °C
05.09.2026 05:28 20,5 °C 64 % 1014,6 hPa 0,0 mm 24,8 km/h (4 Bft) N 350 ° 0 min 0 min 13,5 °C 20,5 °C
05.09.2026 05:23 20,6 °C 65 % 1014,6 hPa 0,0 mm 5,1 km/h (1 Bft) W-NW 285 ° 0 min 0 min 13,8 °C 20,6 °C
05.09.2026 05:18 20,7 °C 65 % 1014,6 hPa 0,0 mm 20,6 km/h (4 Bft) N 0 ° 0 min 0 min 13,9 °C 20,7 °C
_ Min-Zeit 08:38 17:37 17:37 - 19:07 - - - - 06:33 08:38
Minimum _ 13,2 °C 42 % 1008,6 hPa - 0,0 km/h (0 Bft) - - - - 11,1 °C 13,2 °C
_ Max-Zeit 17:37 08:03 08:38 06:43 12:52 - - 13:22 06:43 11:32 17:37
Maximum _ 30,8 °C 94 % 1020,2 hPa 0,6 mm 33,5 km/h
O-SO (5 Bft)
- - 7 min 5 min 18,5 °C 30,8 °C
Durchschnitt _ 21,8 °C 69 % 1013,9 hPa #2,4 mm 7,7 km/h (2 Bft) NW - #0 min. #35 min. 15,4 °C 21,8 °C